Skip Navigation Links Skip Navigation Links

Current Weather

Merced Municipal/Macready Field, Merced, Calif.

For information only: do not use for flight planning or navigation.
Latest weather
Observation time Wednesday, January 26, 2022 8:53 PM PST
Local time Wednesday, January 26, 2022 9:41 PM PST
Flight conditions Visual Meteorological Conditions
Winds
Wind direction Northwest (320°)
Wind speed 5 mph
Visibility 5 mi.
Present weather haze
Sky condition
Ceiling unlimited
Sky clear
Temperature 48°F
Dewpoint 42°F
Altimeter 30.14 in.Hg
Derived measurements
Relative humidity 80%
Wind chill 46°F
Density altitude -694 ft.
Sea-level pressure 30.14 in.Hg
Remarks
Fully automated report.
System requires maintenance.
Automated weather observing station with precipitation discriminator.
METAR KMCE 270453Z AUTO 32004KT 5SM HZ CLR 09/06 A3014 RMK AO2 SLP208 T00890056 $

Settings

Location code

InnerDrive.Weather 4.0.6770.0 Release CLR 4.0.30319.42000
Copyright ©2018 Inner Drive Technology. All rights reserved. Portions Copyright ©1986-2018 David Braverman.

Find weather

Site navigation


Skip Navigation Links

Place info

Page info

PayPal - The safer, easier way to pay online!

Return home.

Copyright ©2022 Inner Drive Technology. Purveyors of fine, hand-crafted computer software. Page printed 2022-01-27T05:41:02 UTC.